Terminal Aerodrome Forecast
Issued by NWS Brownsville, TX

Home | Current Version | Previous Version | Text Only | Print | Product List | Glossary On
Versions: 1 2 3 4 5 6 7 8 9 10 11 12 13 14 15 16
667
FTUS44 KBRO 240527
TAFHRL
TAF
KHRL 240527Z 2406/2506 17008KT P6SM SKC
     FM241400 17014G20KT P6SM SKC
     FM241800 18026G34KT P6SM FEW050
     FM250100 17018G22KT P6SM SCT040=

USA.gov is the U.S. government's official web portal to all federal, state and local government web resources and services.